createdAt,value
2022-09-06T00:00:40.372Z,0
2022-09-06T00:03:06.991Z,0
2022-09-06T00:05:33.609Z,0
2022-09-06T00:07:58.743Z,0
2022-09-06T00:10:25.367Z,0
2022-09-06T00:12:51.982Z,0
2022-09-06T00:15:18.597Z,0
2022-09-06T00:17:45.219Z,0
2022-09-06T00:20:11.856Z,0
2022-09-06T00:22:38.474Z,0
2022-09-06T00:25:05.104Z,0
2022-09-06T00:27:31.716Z,0
2022-09-06T00:29:58.343Z,0
2022-09-06T00:32:24.977Z,0
2022-09-06T00:34:51.589Z,0
2022-09-06T00:37:18.222Z,0
2022-09-06T00:39:43.344Z,0
2022-09-06T00:42:09.963Z,0
2022-09-06T00:44:36.582Z,0
2022-09-06T00:47:03.209Z,0
2022-09-06T00:49:29.835Z,0
2022-09-06T00:51:56.455Z,0
2022-09-06T00:54:23.071Z,0
2022-09-06T00:56:49.696Z,0
2022-09-06T00:59:16.331Z,0
2022-09-06T01:01:42.952Z,0
2022-09-06T01:04:09.571Z,0
2022-09-06T01:06:36.192Z,0
2022-09-06T01:09:02.810Z,0
2022-09-06T01:11:27.932Z,0
2022-09-06T01:13:54.569Z,0
2022-09-06T01:16:21.175Z,0
2022-09-06T01:18:47.803Z,0
2022-09-06T01:21:14.434Z,0
2022-09-06T01:23:41.054Z,0
2022-09-06T01:26:07.673Z,0
2022-09-06T01:28:34.291Z,0
2022-09-06T01:31:00.917Z,0
2022-09-06T01:33:27.539Z,0
2022-09-06T01:35:54.171Z,0
2022-09-06T01:38:20.790Z,0
2022-09-06T01:40:47.408Z,0
2022-09-06T01:43:12.533Z,0
2022-09-06T01:45:39.152Z,0
2022-09-06T01:48:05.782Z,0
2022-09-06T01:50:32.409Z,0
2022-09-06T01:52:59.021Z,0
2022-09-06T01:55:25.666Z,0
2022-09-06T01:57:52.270Z,0
2022-09-06T02:00:18.898Z,0
2022-09-06T02:02:45.525Z,0
2022-09-06T02:05:12.152Z,0
2022-09-06T02:07:38.774Z,0
2022-09-06T02:10:05.379Z,0
2022-09-06T02:12:32.008Z,0
2022-09-06T02:14:57.140Z,0
2022-09-06T02:17:23.755Z,0
2022-09-06T02:19:50.374Z,0
2022-09-06T02:22:17.006Z,0
2022-09-06T02:24:43.477Z,0
2022-09-06T02:27:10.086Z,0
2022-09-06T02:29:36.727Z,0
2022-09-06T02:32:03.331Z,0
2022-09-06T02:34:29.969Z,0
2022-09-06T02:36:56.584Z,0
2022-09-06T02:39:23.206Z,0
2022-09-06T02:41:49.832Z,0
2022-09-06T02:44:16.458Z,0
2022-09-06T02:46:41.579Z,0
2022-09-06T02:49:08.201Z,0
2022-09-06T02:51:34.831Z,0
2022-09-06T02:54:01.441Z,0
2022-09-06T02:56:28.069Z,0
2022-09-06T02:58:54.710Z,0
2022-09-06T03:01:21.317Z,0
2022-09-06T03:03:47.969Z,0
2022-09-06T03:06:14.569Z,0
2022-09-06T03:08:41.184Z,0
2022-09-06T03:11:07.822Z,0
2022-09-06T03:13:34.452Z,0
2022-09-06T03:16:01.050Z,0
2022-09-06T03:18:26.174Z,0
2022-09-06T03:20:52.797Z,0
2022-09-06T03:23:19.414Z,0
2022-09-06T03:25:46.052Z,0
2022-09-06T03:28:12.681Z,0
2022-09-06T03:30:39.287Z,0
2022-09-06T03:33:05.913Z,0
2022-09-06T03:35:32.538Z,0
2022-09-06T03:37:59.163Z,0
2022-09-06T03:40:25.789Z,0
2022-09-06T03:45:19.026Z,0
2022-09-06T03:47:45.656Z,0
2022-09-06T03:50:10.784Z,0
2022-09-06T03:52:37.397Z,0
2022-09-06T03:55:04.030Z,0
2022-09-06T03:57:30.658Z,0
2022-09-06T03:59:57.278Z,0
2022-09-06T04:02:23.891Z,0
2022-09-06T04:04:50.529Z,0
2022-09-06T04:07:17.138Z,0
2022-09-06T04:09:43.758Z,0
2022-09-06T04:12:10.396Z,0
2022-09-06T04:14:37.013Z,0
2022-09-06T04:17:03.635Z,0
2022-09-06T04:19:30.252Z,0
2022-09-06T04:21:55.380Z,4
2022-09-06T04:24:22.010Z,4
2022-09-06T04:26:48.631Z,8
2022-09-06T04:29:15.254Z,8
2022-09-06T04:31:41.866Z,16
2022-09-06T04:34:08.495Z,20
2022-09-06T04:36:35.119Z,32
2022-09-06T04:39:00.258Z,44
2022-09-06T04:41:26.869Z,44
2022-09-06T04:43:53.500Z,56
2022-09-06T04:46:20.117Z,72
2022-09-06T04:48:46.748Z,96
2022-09-06T04:51:13.364Z,124
2022-09-06T04:53:39.979Z,140
2022-09-06T04:56:06.624Z,104
2022-09-06T04:58:33.232Z,80
2022-09-06T05:00:59.858Z,88
2022-09-06T05:03:26.479Z,112
2022-09-06T05:05:53.098Z,144
2022-09-06T05:08:19.725Z,180
2022-09-06T05:10:46.343Z,208
2022-09-06T05:13:11.479Z,273
2022-09-06T05:15:38.104Z,329
2022-09-06T05:18:04.719Z,369
2022-09-06T05:20:31.345Z,413
2022-09-06T05:22:57.969Z,538
2022-09-06T05:25:24.593Z,670
2022-09-06T05:27:51.216Z,718
2022-09-06T05:30:17.835Z,775
2022-09-06T05:32:44.457Z,931
2022-09-06T05:35:11.073Z,1124
2022-09-06T05:37:37.719Z,1377
2022-09-06T05:42:30.951Z,1859
2022-09-06T05:44:56.082Z,1883
2022-09-06T05:47:22.709Z,1815
2022-09-06T05:49:49.327Z,1827
2022-09-06T05:52:15.963Z,1750
2022-09-06T05:54:42.582Z,1662
2022-09-06T05:57:09.184Z,1670
2022-09-06T05:59:35.823Z,1614
2022-09-06T06:02:02.454Z,1622
2022-09-06T06:04:29.054Z,1558
2022-09-06T06:06:55.696Z,1421
2022-09-06T06:09:22.325Z,1369
2022-09-06T06:11:48.929Z,1309
2022-09-06T06:14:15.565Z,1236
2022-09-06T06:16:40.675Z,1433
2022-09-06T06:19:07.304Z,1686
2022-09-06T06:21:33.924Z,1722
2022-09-06T06:24:00.549Z,2007
2022-09-06T06:26:27.173Z,2373
2022-09-06T06:28:53.810Z,2353
2022-09-06T06:31:20.429Z,2481
2022-09-06T06:33:47.050Z,3172
2022-09-06T06:36:13.662Z,3537
2022-09-06T06:38:40.288Z,3630
2022-09-06T06:41:06.688Z,3686
2022-09-06T06:43:33.312Z,3786
2022-09-06T06:45:59.930Z,4176
2022-09-06T06:48:26.550Z,4461
2022-09-06T06:50:51.686Z,4858
2022-09-06T06:53:18.317Z,4248
2022-09-06T06:55:44.934Z,2943
2022-09-06T06:58:11.545Z,2750
2022-09-06T07:00:38.168Z,2714
2022-09-06T07:03:04.791Z,2525
2022-09-06T07:05:31.416Z,2674
2022-09-06T07:07:58.046Z,4011
2022-09-06T07:10:24.652Z,5722
2022-09-06T07:12:51.275Z,4666
2022-09-06T07:15:17.916Z,4778
2022-09-06T07:17:44.523Z,19178
2022-09-06T07:20:11.161Z,24447
2022-09-06T07:22:36.272Z,34053
2022-09-06T07:25:02.897Z,32800
2022-09-06T07:27:29.527Z,29394
2022-09-06T07:29:56.147Z,26214
2022-09-06T07:32:22.766Z,19917
2022-09-06T07:34:49.388Z,23901
2022-09-06T07:37:16.015Z,24800
2022-09-06T07:39:42.648Z,12167
2022-09-06T07:42:09.250Z,8051
2022-09-06T07:44:35.877Z,14713
2022-09-06T07:47:02.502Z,22166
2022-09-06T07:49:29.127Z,23323
2022-09-06T07:51:55.785Z,12737
2022-09-06T07:54:20.872Z,15580
2022-09-06T07:56:47.501Z,31739
2022-09-06T07:59:14.128Z,30904
2022-09-06T08:01:40.751Z,24190
2022-09-06T08:04:07.371Z,33892
2022-09-06T08:06:33.993Z,33828
2022-09-06T08:09:00.726Z,33828
2022-09-06T08:11:27.248Z,38743
2022-09-06T08:13:53.848Z,40413
2022-09-06T08:16:20.534Z,36269
2022-09-06T08:18:47.095Z,32414
2022-09-06T08:21:13.732Z,24286
2022-09-06T08:23:40.352Z,34502
2022-09-06T08:26:05.473Z,45329
2022-09-06T08:28:32.097Z,44268
2022-09-06T08:30:58.728Z,40413
2022-09-06T08:33:25.335Z,46903
2022-09-06T08:35:51.966Z,45264
2022-09-06T08:38:18.583Z,45586
2022-09-06T08:40:45.210Z,44525
2022-09-06T08:43:11.833Z,50276
2022-09-06T08:45:38.470Z,51593
2022-09-06T08:48:05.080Z,43176
2022-09-06T08:50:31.713Z,35852
2022-09-06T08:52:58.330Z,18215
2022-09-06T08:55:24.951Z,37715
2022-09-06T08:57:50.074Z,33988
2022-09-06T09:00:16.705Z,40542
2022-09-06T09:02:43.328Z,45264
2022-09-06T09:05:09.955Z,45714
2022-09-06T09:07:36.575Z,49248
2022-09-06T09:10:03.179Z,19789
2022-09-06T09:12:29.810Z,44943
2022-09-06T09:14:56.442Z,50726
2022-09-06T09:17:23.069Z,45232
2022-09-06T09:19:49.682Z,61391
2022-09-06T09:22:16.294Z,55834
2022-09-06T09:24:42.927Z,56251
2022-09-06T09:27:09.547Z,10994
2022-09-06T09:29:34.673Z,8031
2022-09-06T09:32:01.302Z,8400
2022-09-06T09:34:27.925Z,9485
2022-09-06T09:36:54.551Z,13838
2022-09-06T09:41:47.800Z,14448
2022-09-06T09:44:14.436Z,29651
2022-09-06T09:46:41.041Z,50180
2022-09-06T09:49:07.673Z,47642
2022-09-06T09:51:34.285Z,31482
2022-09-06T09:54:00.902Z,22102
2022-09-06T09:56:27.536Z,11099
2022-09-06T09:58:54.162Z,10605
2022-09-06T10:01:20.785Z,11364
2022-09-06T10:03:47.420Z,13247
2022-09-06T10:06:12.561Z,11087
2022-09-06T10:08:39.220Z,7999
2022-09-06T10:11:05.783Z,6401
2022-09-06T10:13:32.400Z,6176
2022-09-06T10:15:59.030Z,6308
2022-09-06T10:18:25.659Z,6533
2022-09-06T10:20:52.274Z,6340
2022-09-06T10:23:18.913Z,5818
2022-09-06T10:25:45.513Z,5609
2022-09-06T10:28:12.138Z,5413
2022-09-06T10:30:38.770Z,5320
2022-09-06T10:33:05.388Z,5003
2022-09-06T10:35:32.007Z,4541
2022-09-06T10:37:57.139Z,4778
2022-09-06T10:40:23.768Z,5377
2022-09-06T10:42:50.389Z,6806
2022-09-06T10:45:17.080Z,7163
2022-09-06T10:47:43.632Z,5895
2022-09-06T10:50:10.515Z,5593
2022-09-06T10:52:36.886Z,5738
2022-09-06T10:55:03.504Z,5364
2022-09-06T10:57:30.108Z,5573
2022-09-06T10:59:56.739Z,6123
2022-09-06T11:02:23.376Z,6384
2022-09-06T11:04:49.989Z,6678
2022-09-06T11:07:16.609Z,6726
2022-09-06T11:09:43.237Z,7027
2022-09-06T11:12:08.370Z,6830
2022-09-06T11:14:34.986Z,6927
2022-09-06T11:17:01.624Z,6597
2022-09-06T11:19:28.236Z,6794
2022-09-06T11:21:54.861Z,6726
2022-09-06T11:24:21.489Z,6445
2022-09-06T11:26:48.100Z,6384
2022-09-06T11:29:14.732Z,6541
2022-09-06T11:31:41.370Z,6730
2022-09-06T11:34:07.987Z,6842
2022-09-06T11:36:34.650Z,6429
2022-09-06T11:39:01.233Z,5702
2022-09-06T11:41:27.870Z,5750
2022-09-06T11:43:52.999Z,6963
2022-09-06T11:46:19.609Z,6915
2022-09-06T11:48:46.221Z,6485
2022-09-06T11:51:12.876Z,5790
2022-09-06T11:53:39.469Z,5228
2022-09-06T11:56:06.109Z,5136
2022-09-06T11:58:32.720Z,5172
2022-09-06T12:00:59.507Z,4770
2022-09-06T12:03:25.985Z,4481
2022-09-06T12:05:52.603Z,4152
2022-09-06T12:08:19.224Z,4445
2022-09-06T12:10:45.835Z,5055
2022-09-06T12:13:12.465Z,5216
2022-09-06T12:15:37.590Z,5192
2022-09-06T12:18:04.209Z,4842
2022-09-06T12:20:30.842Z,4826
2022-09-06T12:22:57.467Z,4887
2022-09-06T12:25:24.072Z,4682
2022-09-06T12:27:50.697Z,3975
2022-09-06T12:30:17.346Z,3377
2022-09-06T12:32:43.960Z,3670
2022-09-06T12:35:10.571Z,3738
2022-09-06T12:37:37.197Z,3967
2022-09-06T12:40:03.821Z,4786
2022-09-06T12:42:30.447Z,4425
2022-09-06T12:44:57.061Z,3971
2022-09-06T12:47:22.189Z,3995
2022-09-06T12:49:47.327Z,4714
2022-09-06T12:52:13.948Z,5216
2022-09-06T12:54:40.573Z,4951
2022-09-06T12:57:07.191Z,4405
2022-09-06T12:59:33.828Z,3843
2022-09-06T13:02:00.447Z,3923
2022-09-06T13:06:53.684Z,3565
2022-09-06T13:09:20.311Z,3561
2022-09-06T13:11:46.928Z,3035
2022-09-06T13:14:13.562Z,2682
2022-09-06T13:16:40.178Z,2369
2022-09-06T13:19:06.797Z,2104
2022-09-06T13:21:31.936Z,2043
2022-09-06T13:23:58.551Z,1899
2022-09-06T13:26:25.182Z,1694
2022-09-06T13:31:18.423Z,1694
2022-09-06T13:36:11.671Z,1469
2022-09-06T13:38:36.800Z,1574
2022-09-06T13:41:01.915Z,1746
2022-09-06T13:43:28.569Z,1827
2022-09-06T13:45:55.166Z,1690
2022-09-06T13:48:21.793Z,1670
2022-09-06T13:50:48.404Z,1871
2022-09-06T13:53:15.035Z,2268
2022-09-06T13:55:41.684Z,2421
2022-09-06T13:58:08.288Z,2493
2022-09-06T14:00:34.899Z,2754
2022-09-06T14:03:01.528Z,2939
2022-09-06T14:05:26.677Z,3076
2022-09-06T14:07:51.796Z,3557
2022-09-06T14:10:18.403Z,3859
2022-09-06T14:15:11.664Z,3453
2022-09-06T14:17:38.283Z,3316
2022-09-06T14:20:04.889Z,3377
2022-09-06T14:22:31.525Z,3200
2022-09-06T14:24:58.148Z,3120
2022-09-06T14:27:24.778Z,3220
2022-09-06T14:29:51.396Z,3598
2022-09-06T14:32:18.015Z,3702
2022-09-06T14:34:44.646Z,3650
2022-09-06T14:37:11.278Z,3421
2022-09-06T14:39:36.387Z,3228
2022-09-06T14:42:03.046Z,2999
2022-09-06T14:44:29.644Z,2714
2022-09-06T14:46:56.273Z,2489
2022-09-06T14:49:22.890Z,2525
2022-09-06T14:51:49.516Z,2782
2022-09-06T14:54:16.131Z,2967
2022-09-06T14:56:42.771Z,3116
2022-09-06T14:59:09.381Z,2903
2022-09-06T15:01:36.039Z,2802
2022-09-06T15:04:02.631Z,2851
2022-09-06T15:06:29.258Z,2835
2022-09-06T15:08:55.884Z,2485
2022-09-06T15:13:47.630Z,1999
2022-09-06T15:18:40.877Z,2128
2022-09-06T15:21:07.501Z,1939
2022-09-06T15:23:34.118Z,1710
2022-09-06T15:26:00.777Z,1863
2022-09-06T15:28:27.366Z,2260
2022-09-06T15:30:54.020Z,2441
2022-09-06T15:33:20.630Z,2417
2022-09-06T15:35:47.250Z,2602
2022-09-06T15:38:13.867Z,3063
2022-09-06T15:40:40.504Z,3469
2022-09-06T15:43:05.639Z,3421
2022-09-06T15:45:32.245Z,3393
2022-09-06T15:47:58.886Z,3284
2022-09-06T15:50:25.488Z,3088
2022-09-06T15:52:52.120Z,2911
2022-09-06T15:55:18.736Z,2654
2022-09-06T15:57:45.355Z,2477
2022-09-06T16:02:38.616Z,2092
2022-09-06T16:05:03.738Z,1899
2022-09-06T16:07:28.882Z,1449
2022-09-06T16:09:55.505Z,1192
2022-09-06T16:12:22.118Z,1180
2022-09-06T16:14:48.735Z,1152
2022-09-06T16:17:15.366Z,1108
2022-09-06T16:19:41.986Z,987
2022-09-06T16:22:08.624Z,879
2022-09-06T16:24:35.231Z,819
2022-09-06T16:27:01.869Z,851
2022-09-06T16:31:55.111Z,835
2022-09-06T16:34:21.718Z,742
2022-09-06T16:36:48.341Z,799
2022-09-06T16:39:14.969Z,799
2022-09-06T16:41:40.105Z,819
2022-09-06T16:44:06.729Z,859
2022-09-06T16:46:33.337Z,843
2022-09-06T16:48:59.963Z,791
2022-09-06T16:51:26.592Z,762
2022-09-06T16:53:53.212Z,686
2022-09-06T16:56:19.831Z,650
2022-09-06T16:58:44.970Z,630
2022-09-06T17:01:10.121Z,598
2022-09-06T17:03:36.701Z,566
2022-09-06T17:06:03.349Z,546
2022-09-06T17:08:29.948Z,526
2022-09-06T17:10:56.581Z,505
2022-09-06T17:13:23.217Z,489
2022-09-06T17:15:49.829Z,473
2022-09-06T17:18:16.444Z,469
2022-09-06T17:20:43.070Z,441
2022-09-06T17:23:09.694Z,409
2022-09-06T17:25:36.322Z,389
2022-09-06T17:30:29.560Z,305
2022-09-06T17:32:54.694Z,285
2022-09-06T17:35:21.328Z,248
2022-09-06T17:37:47.948Z,208
2022-09-06T17:40:14.566Z,172
2022-09-06T17:42:41.181Z,140
2022-09-06T17:45:07.803Z,116
2022-09-06T17:47:34.433Z,96
2022-09-06T17:50:01.043Z,80
2022-09-06T17:52:27.687Z,64
2022-09-06T17:54:54.299Z,52
2022-09-06T17:59:47.554Z,28
2022-09-06T18:02:14.161Z,20
2022-09-06T18:07:05.910Z,8
2022-09-06T18:11:57.663Z,4
2022-09-06T18:14:22.811Z,4
2022-09-06T18:16:47.918Z,0
2022-09-06T18:19:14.558Z,0
2022-09-06T18:21:41.177Z,0
2022-09-06T18:26:34.410Z,0
2022-09-06T18:31:27.673Z,0
2022-09-06T18:33:54.295Z,0
2022-09-06T18:36:20.925Z,0
2022-09-06T18:43:40.780Z,0
2022-09-06T18:46:07.414Z,0
2022-09-06T18:48:34.028Z,0
2022-09-06T18:53:27.277Z,0
2022-09-06T18:58:20.576Z,0
2022-09-06T19:00:47.165Z,0
2022-09-06T19:03:12.395Z,0
2022-09-06T19:05:37.529Z,0
2022-09-06T19:12:57.273Z,0
2022-09-06T19:15:23.908Z,0
2022-09-06T19:17:50.519Z,0
2022-09-06T19:22:43.754Z,0
2022-09-06T19:30:03.628Z,0
2022-09-06T19:32:30.260Z,0
2022-09-06T19:34:56.883Z,0
2022-09-06T19:37:21.997Z,0
2022-09-06T19:39:48.631Z,0
2022-09-06T19:42:15.251Z,0
2022-09-06T19:44:41.866Z,0
2022-09-06T19:47:08.491Z,0
2022-09-06T19:49:35.106Z,0
2022-09-06T19:52:01.748Z,0
2022-09-06T19:56:55.003Z,0
2022-09-06T19:59:21.656Z,0
2022-09-06T20:01:48.221Z,0
2022-09-06T20:06:41.478Z,0
2022-09-06T20:11:33.222Z,0
2022-09-06T20:13:59.847Z,0
2022-09-06T20:16:26.481Z,0
2022-09-06T20:18:53.100Z,0
2022-09-06T20:21:19.733Z,0
2022-09-06T20:23:46.345Z,0
2022-09-06T20:26:12.958Z,0
2022-09-06T20:28:39.585Z,0
2022-09-06T20:31:06.216Z,0
2022-09-06T20:33:32.842Z,0
2022-09-06T20:35:59.461Z,0
2022-09-06T20:43:19.320Z,0
2022-09-06T20:45:45.963Z,0
2022-09-06T20:48:11.098Z,0
2022-09-06T20:50:37.696Z,0
2022-09-06T20:53:04.325Z,0
2022-09-06T20:55:30.941Z,0
2022-09-06T20:57:57.554Z,0
2022-09-06T21:00:24.175Z,0
2022-09-06T21:05:15.941Z,0
2022-09-06T21:07:42.571Z,0
2022-09-06T21:10:07.699Z,0
2022-09-06T21:12:34.308Z,0
2022-09-06T21:15:00.950Z,0
2022-09-06T21:17:27.563Z,0
2022-09-06T21:19:54.194Z,0
2022-09-06T21:22:20.813Z,0
2022-09-06T21:24:47.432Z,0
2022-09-06T21:27:14.042Z,0
2022-09-06T21:29:40.677Z,0
2022-09-06T21:32:07.305Z,0
2022-09-06T21:34:32.437Z,0
2022-09-06T21:36:57.557Z,0
2022-09-06T21:39:24.197Z,0
2022-09-06T21:41:50.792Z,0
2022-09-06T21:44:17.422Z,0
2022-09-06T21:46:44.042Z,0
2022-09-06T21:49:10.660Z,0
2022-09-06T21:51:37.299Z,0
2022-09-06T21:54:03.919Z,0
2022-09-06T21:56:30.539Z,0
2022-09-06T21:58:57.178Z,0
2022-09-06T22:01:22.301Z,0
2022-09-06T22:03:47.414Z,0
2022-09-06T22:06:14.039Z,0
2022-09-06T22:08:40.865Z,0
2022-09-06T22:11:07.284Z,0
2022-09-06T22:13:33.903Z,0
2022-09-06T22:16:00.529Z,0
2022-09-06T22:20:53.778Z,0
2022-09-06T22:23:20.395Z,0
2022-09-06T22:25:47.020Z,0
2022-09-06T22:28:13.646Z,0
2022-09-06T22:30:40.264Z,0
2022-09-06T22:33:06.891Z,0
2022-09-06T22:35:32.017Z,0
2022-09-06T22:37:58.657Z,0
2022-09-06T22:40:25.265Z,0
2022-09-06T22:45:18.512Z,0
2022-09-06T22:47:43.640Z,0
2022-09-06T22:50:08.781Z,0
2022-09-06T22:52:35.381Z,0
2022-09-06T22:55:02.019Z,0
2022-09-06T22:59:55.255Z,0
2022-09-06T23:02:21.877Z,0
2022-09-06T23:04:48.503Z,0
2022-09-06T23:07:15.124Z,0
2022-09-06T23:09:41.735Z,0
2022-09-06T23:12:08.385Z,0
2022-09-06T23:14:34.995Z,0
2022-09-06T23:17:01.615Z,0
2022-09-06T23:19:28.273Z,0
2022-09-06T23:21:53.360Z,0
2022-09-06T23:24:19.971Z,0
2022-09-06T23:26:46.603Z,0
2022-09-06T23:29:13.242Z,0
2022-09-06T23:31:39.863Z,0
2022-09-06T23:34:06.479Z,0
2022-09-06T23:36:33.100Z,0
2022-09-06T23:38:59.716Z,0
2022-09-06T23:41:26.336Z,0
2022-09-06T23:43:52.958Z,0
2022-09-06T23:46:18.085Z,0
2022-09-06T23:48:43.222Z,0
2022-09-06T23:51:09.838Z,0
2022-09-06T23:53:36.487Z,0
2022-09-06T23:58:29.723Z,0
